Valdosta, GA

6:55 PM EDT on August 31, 2016 (GMT -0400)
Audio Video and Security Inc. | | Change Station

Elev 220 ft 30.81 °N, 83.32 °W | Updated 8 seconds ago

Light Rain
Light Rain
76.7 °F
Feels Like 77 °F
N
1.7
Wind Variable Wind from SW

Today
High -- | Low -- °F
--% Chance of Precip.
Yesterday
High -- | Low -- °F
Precip. -- in
Pressure 29.89 in
Visibility 10.0 miles
Clouds Few 3700 ft
Scattered Clouds 7500 ft
Mostly Cloudy 10000 ft
Heat Index 77 °F
Dew Point 75 °F
Humidity 95%
Rainfall 0.00 in
Snow Depth Not available.
7:09 AM 7:56 PM
Waning Crescent, 0% visible
METAR KVLD 312253Z 00000KT 10SM -RA FEW037 SCT075 BKN100 26/26 A2987 RMK AO2 SLP120 P0000 T02560256
Pressure 29.89 in
Visibility 10.0 miles
Clouds Few 3700 ft
Scattered Clouds 7500 ft
Mostly Cloudy 10000 ft
Heat Index 77 °F
Dew Point 75 °F
Humidity 95%
Rainfall 0.00 in
Snow Depth Not available.
7:09 AM 7:56 PM
Waning Crescent, 0% visible
METAR KVLD 312253Z 00000KT 10SM -RA FEW037 SCT075 BKN100 26/26 A2987 RMK AO2 SLP120 P0000 T02560256
A tropical storm warning and hurricane watch is in effect for parts of the northern Florida Gulf Coast as Tropical Storm Hermine intensifies in the eastern Gulf of Mexico. A tropical storm watch is in effect for parts of the Atlantic coast of Georgia and Florida, as Hermine is expected to move near or just inland from the Southeast U.S. Coast on Friday and Friday night. Very heavy rains are possible near Hermine's path.

10-Day Weather Forecast

Almanac

Astronomy

Aug. 31, 2016 Rise Set
Actual Time
Civil Twilight
Nautical Twilight
Astronomical Twilight
Moon
Length of Visible Light
Length of Day
Tomorrow will be .
, % of the Moon is Illuminated

Today's Extremes

State Highs State Lows

Community

WunderPhotos

Upload Photos

1,936,204 photos uploaded!

WunderBlog® & News

Nearby

Air Quality

  Air Quality AQ Index Pollutant
Not available.

Snow Depth

Station Depth Elevation

Earthquake Activity

City Distance Mag. Time & Date
Minimum magnitude displayed is 2.5.

Coastal Water Temperatures

Place Temperature

Stations

Nearby Weather Stations

Station Location Temp. Windchill Dew Point Humidity Wind Precip. Elev Updated Type
                   

Watches & Warnings

There are currently no watches in effect.